createdAt,value
2023-04-12T00:00:06.208Z,1022.97
2023-04-12T00:01:08.413Z,1022.96
2023-04-12T00:02:10.766Z,1022.95
2023-04-12T00:03:13.169Z,1022.93
2023-04-12T00:04:14.779Z,1022.93
2023-04-12T00:05:16.336Z,1022.93
2023-04-12T00:06:17.744Z,1022.81
2023-04-12T00:07:19.990Z,1022.92
2023-04-12T00:08:21.404Z,1022.92
2023-04-12T00:09:23.594Z,1022.88
2023-04-12T00:10:24.991Z,1022.87
2023-04-12T00:11:27.301Z,1022.87
2023-04-12T00:12:29.548Z,1022.92
2023-04-12T00:13:31.756Z,1022.94
2023-04-12T00:14:33.153Z,1022.88
2023-04-12T00:15:34.600Z,1022.92
2023-04-12T00:16:36.015Z,1022.87
2023-04-12T00:17:37.419Z,1022.95
2023-04-12T00:18:39.624Z,1022.82
2023-04-12T00:19:41.823Z,1022.85
2023-04-12T00:20:43.222Z,1022.85
2023-04-12T00:21:45.466Z,1022.86
2023-04-12T00:22:46.878Z,1022.90
2023-04-12T00:23:48.299Z,1022.89
2023-04-12T00:24:50.541Z,1022.89
2023-04-12T00:25:52.741Z,1022.81
2023-04-12T00:26:54.148Z,1022.83
2023-04-12T00:27:55.541Z,1022.85
2023-04-12T00:28:56.948Z,1022.74
2023-04-12T00:29:59.193Z,1022.79
2023-04-12T00:31:00.607Z,1022.69
2023-04-12T00:32:02.025Z,1022.63
2023-04-12T00:33:04.323Z,1022.65
2023-04-12T00:34:06.520Z,1022.69
2023-04-12T00:35:08.722Z,1022.78
2023-04-12T00:36:11.005Z,1022.67
2023-04-12T00:37:13.200Z,1022.66
2023-04-12T00:38:15.461Z,1022.64
2023-04-12T00:39:16.853Z,1022.63
2023-04-12T00:40:18.367Z,1022.64
2023-04-12T00:41:19.804Z,1022.62
2023-04-12T00:42:22.006Z,1022.59
2023-04-12T00:43:24.270Z,1022.63
2023-04-12T00:44:25.668Z,1022.54
2023-04-12T00:45:27.077Z,1022.60
2023-04-12T00:46:28.573Z,1022.56
2023-04-12T00:47:30.855Z,1022.53
2023-04-12T00:48:32.251Z,1022.48
2023-04-12T00:49:34.499Z,1022.58
2023-04-12T00:50:36.833Z,1022.57
2023-04-12T00:51:38.291Z,1022.58
2023-04-12T00:52:39.726Z,1022.58
2023-04-12T00:53:41.135Z,1022.63
2023-04-12T00:54:42.520Z,1022.61
2023-04-12T00:55:43.920Z,1022.62
2023-04-12T00:56:45.386Z,1022.63
2023-04-12T00:57:47.583Z,1022.58
2023-04-12T00:58:48.986Z,1022.56
2023-04-12T00:59:51.184Z,1022.55
2023-04-12T01:00:53.425Z,1022.52
2023-04-12T01:01:54.931Z,1022.49
2023-04-12T01:02:57.251Z,1022.39
2023-04-12T01:03:59.696Z,1022.48
2023-04-12T01:05:01.179Z,1022.37
2023-04-12T01:06:03.383Z,1022.46
2023-04-12T01:07:05.612Z,1022.41
2023-04-12T01:08:07.004Z,1022.46
2023-04-12T01:09:09.260Z,1022.40
2023-04-12T01:10:10.725Z,1022.45
2023-04-12T01:11:13.255Z,1022.45
2023-04-12T01:12:14.605Z,1022.56
2023-04-12T01:13:16.008Z,1022.45
2023-04-12T01:14:18.258Z,1022.49
2023-04-12T01:15:20.462Z,1022.43
2023-04-12T01:16:21.904Z,1022.41
2023-04-12T01:17:23.389Z,1022.43
2023-04-12T01:18:25.644Z,1022.42
2023-04-12T01:19:27.851Z,1022.35
2023-04-12T01:20:29.323Z,1022.45
2023-04-12T01:21:31.573Z,1022.33
2023-04-12T01:22:32.980Z,1022.33
2023-04-12T01:23:35.238Z,1022.25
2023-04-12T01:24:37.441Z,1022.29
2023-04-12T01:25:39.643Z,1022.20
2023-04-12T01:26:41.901Z,1022.26
2023-04-12T01:27:43.313Z,1022.20
2023-04-12T01:28:44.801Z,1022.13
2023-04-12T01:29:46.993Z,1022.23
2023-04-12T01:30:49.265Z,1022.21
2023-04-12T01:31:50.698Z,1022.18
2023-04-12T01:32:52.966Z,1022.21
2023-04-12T01:33:55.454Z,1022.09
2023-04-12T01:34:57.164Z,1022.13
2023-04-12T01:35:58.600Z,1022.08
2023-04-12T01:37:00.850Z,1022.14
2023-04-12T01:38:02.241Z,1022.09
2023-04-12T01:39:03.634Z,1022.08
2023-04-12T01:40:05.888Z,1022.08
2023-04-12T01:41:08.075Z,1022.01
2023-04-12T01:42:09.573Z,1022.00
2023-04-12T01:43:10.989Z,1022.04
2023-04-12T01:44:12.376Z,1022.05
2023-04-12T01:45:14.591Z,1022.06
2023-04-12T01:46:16.061Z,1022.01
2023-04-12T01:47:18.293Z,1021.96
2023-04-12T01:48:20.547Z,1021.99
2023-04-12T01:49:22.744Z,1022.01
2023-04-12T01:50:24.140Z,1021.93
2023-04-12T01:51:25.543Z,1021.94
2023-04-12T01:52:27.776Z,1021.94
2023-04-12T01:53:29.185Z,1021.96
2023-04-12T01:54:30.588Z,1021.92
2023-04-12T01:55:32.832Z,1021.91
2023-04-12T01:56:35.026Z,1021.96
2023-04-12T01:57:36.430Z,1021.92
2023-04-12T01:58:37.978Z,1021.92
2023-04-12T01:59:40.226Z,1021.90
2023-04-12T02:00:41.628Z,1021.79
2023-04-12T02:01:43.274Z,1021.85
2023-04-12T02:02:45.798Z,1021.91
2023-04-12T02:03:47.476Z,1021.81
2023-04-12T02:04:49.753Z,1021.81
2023-04-12T02:05:51.161Z,1021.81
2023-04-12T02:06:53.357Z,1021.80
2023-04-12T02:07:54.751Z,1021.77
2023-04-12T02:08:56.997Z,1021.80
2023-04-12T02:09:58.398Z,1021.72
2023-04-12T02:11:00.657Z,1021.66
2023-04-12T02:12:02.041Z,1021.77
2023-04-12T02:13:03.500Z,1021.69
2023-04-12T02:14:04.919Z,1021.83
2023-04-12T02:15:06.325Z,1021.74
2023-04-12T02:16:08.659Z,1021.69
2023-04-12T02:17:10.850Z,1021.70
2023-04-12T02:18:12.261Z,1021.64
2023-04-12T02:19:14.475Z,1021.67
2023-04-12T02:20:15.877Z,1021.67
2023-04-12T02:21:18.123Z,1021.61
2023-04-12T02:22:19.518Z,1021.64
2023-04-12T02:23:20.923Z,1021.58
2023-04-12T02:24:22.326Z,1021.62
2023-04-12T02:25:24.570Z,1021.57
2023-04-12T02:26:26.754Z,1021.61
2023-04-12T02:27:28.176Z,1021.58
2023-04-12T02:28:30.530Z,1021.57
2023-04-12T02:29:32.793Z,1021.47
2023-04-12T02:30:35.061Z,1021.51
2023-04-12T02:31:37.263Z,1021.51
2023-04-12T02:32:39.545Z,1021.45
2023-04-12T02:33:40.937Z,1021.45
2023-04-12T02:34:42.332Z,1021.35
2023-04-12T02:35:44.620Z,1021.33
2023-04-12T02:36:46.809Z,1021.33
2023-04-12T02:37:49.055Z,1021.30
2023-04-12T02:38:51.312Z,1021.33
2023-04-12T02:39:53.503Z,1021.23
2023-04-12T02:40:54.908Z,1021.40
2023-04-12T02:41:57.113Z,1021.31
2023-04-12T02:42:59.310Z,1021.37
2023-04-12T02:44:01.507Z,1021.37
2023-04-12T02:45:03.757Z,1021.33
2023-04-12T02:46:05.204Z,1021.31
2023-04-12T02:47:07.388Z,1021.26
2023-04-12T02:48:09.674Z,1021.22
2023-04-12T02:49:12.004Z,1021.18
2023-04-12T02:50:13.931Z,1021.21
2023-04-12T02:51:16.125Z,1021.29
2023-04-12T02:52:18.392Z,1021.25
2023-04-12T02:53:20.572Z,1021.28
2023-04-12T02:54:22.033Z,1021.27
2023-04-12T02:55:23.546Z,1021.23
2023-04-12T02:56:25.795Z,1021.17
2023-04-12T02:57:27.203Z,1021.18
2023-04-12T02:58:29.444Z,1021.28
2023-04-12T02:59:31.700Z,1021.23
2023-04-12T03:00:33.901Z,1021.24
2023-04-12T03:01:35.373Z,1021.17
2023-04-12T03:02:37.657Z,1021.28
2023-04-12T03:03:39.983Z,1021.15
2023-04-12T03:04:41.415Z,1021.24
2023-04-12T03:05:42.821Z,1021.32
2023-04-12T03:06:45.015Z,1021.26
2023-04-12T03:07:47.285Z,1021.36
2023-04-12T03:08:48.716Z,1021.25
2023-04-12T03:09:50.124Z,1021.41
2023-04-12T03:10:51.515Z,1021.22
2023-04-12T03:11:52.942Z,1021.24
2023-04-12T03:12:54.347Z,1021.25
2023-04-12T03:13:55.956Z,1021.36
2023-04-12T03:14:58.379Z,1021.31
2023-04-12T03:15:59.978Z,1021.30
2023-04-12T03:17:01.464Z,1021.36
2023-04-12T03:18:03.030Z,1021.31
2023-04-12T03:19:04.392Z,1021.29
2023-04-12T03:20:06.641Z,1021.28
2023-04-12T03:21:08.841Z,1021.36
2023-04-12T03:22:11.168Z,1021.29
2023-04-12T03:23:13.356Z,1021.36
2023-04-12T03:24:15.560Z,1021.36
2023-04-12T03:25:17.781Z,1021.35
2023-04-12T03:26:20.016Z,1021.36
2023-04-12T03:27:22.274Z,1021.35
2023-04-12T03:28:23.728Z,1021.36
2023-04-12T03:29:25.994Z,1021.40
2023-04-12T03:30:28.698Z,1021.29
2023-04-12T03:31:30.112Z,1021.25
2023-04-12T03:32:32.371Z,1021.29
2023-04-12T03:33:34.627Z,1021.22
2023-04-12T03:34:36.030Z,1021.25
2023-04-12T03:35:38.259Z,1021.22
2023-04-12T03:36:39.654Z,1021.17
2023-04-12T03:37:41.910Z,1021.16
2023-04-12T03:38:44.124Z,1021.10
2023-04-12T03:39:46.368Z,1021.08
2023-04-12T03:40:47.764Z,1021.12
2023-04-12T03:41:49.173Z,1021.17
2023-04-12T03:42:51.381Z,1021.16
2023-04-12T03:43:52.784Z,1021.17
2023-04-12T03:44:54.191Z,1021.19
2023-04-12T03:45:55.583Z,1021.09
2023-04-12T03:46:57.068Z,1021.11
2023-04-12T03:47:58.593Z,1021.12
2023-04-12T03:48:59.983Z,1021.10
2023-04-12T03:51:04.637Z,1021.09
2023-04-12T03:52:06.887Z,1021.03
2023-04-12T03:53:09.154Z,1021.06
2023-04-12T03:54:11.360Z,1020.98
2023-04-12T03:55:12.755Z,1021.08
2023-04-12T03:56:14.154Z,1020.97
2023-04-12T03:57:15.608Z,1021.04
2023-04-12T03:58:17.015Z,1021.00
2023-04-12T03:59:18.412Z,1021.08
2023-04-12T04:00:20.663Z,1021.04
2023-04-12T04:01:22.905Z,1021.06
2023-04-12T04:02:25.309Z,1021.03
2023-04-12T04:03:27.799Z,1021.03
2023-04-12T04:04:29.358Z,1020.94
2023-04-12T04:05:30.845Z,1020.95
2023-04-12T04:06:33.047Z,1020.99
2023-04-12T04:07:34.435Z,1021.02
2023-04-12T04:08:36.640Z,1021.00
2023-04-12T04:09:38.038Z,1020.94
2023-04-12T04:10:40.283Z,1020.96
2023-04-12T04:11:42.478Z,1020.85
2023-04-12T04:12:44.681Z,1020.86
2023-04-12T04:13:46.884Z,1020.85
2023-04-12T04:14:48.301Z,1020.84
2023-04-12T04:15:49.760Z,1020.90
2023-04-12T04:16:51.162Z,1020.89
2023-04-12T04:17:53.439Z,1020.85
2023-04-12T04:18:54.877Z,1020.89
2023-04-12T04:19:57.075Z,1020.87
2023-04-12T04:20:59.323Z,1020.80
2023-04-12T04:22:00.726Z,1020.89
2023-04-12T04:23:02.982Z,1020.93
2023-04-12T04:24:05.234Z,1020.83
2023-04-12T04:25:06.646Z,1020.81
2023-04-12T04:26:08.839Z,1020.87
2023-04-12T04:27:11.109Z,1020.83
2023-04-12T04:28:13.306Z,1020.78
2023-04-12T04:29:14.708Z,1020.73
2023-04-12T04:30:16.099Z,1020.74
2023-04-12T04:31:18.358Z,1020.70
2023-04-12T04:32:19.765Z,1020.70
2023-04-12T04:33:21.197Z,1020.68
2023-04-12T04:34:22.565Z,1020.73
2023-04-12T04:35:24.864Z,1020.71
2023-04-12T04:36:27.150Z,1020.70
2023-04-12T04:37:28.546Z,1020.67
2023-04-12T04:38:29.943Z,1020.57
2023-04-12T04:39:32.148Z,1020.56
2023-04-12T04:40:33.554Z,1020.54
2023-04-12T04:41:35.806Z,1020.60
2023-04-12T04:42:38.054Z,1020.46
2023-04-12T04:43:39.468Z,1020.47
2023-04-12T04:44:40.858Z,1020.50
2023-04-12T04:45:42.292Z,1020.44
2023-04-12T04:46:43.685Z,1020.44
2023-04-12T04:47:45.999Z,1020.46
2023-04-12T04:48:47.436Z,1020.44
2023-04-12T04:49:48.828Z,1020.41
2023-04-12T04:50:50.229Z,1020.50
2023-04-12T04:51:51.633Z,1020.44
2023-04-12T04:52:53.840Z,1020.48
2023-04-12T04:53:56.164Z,1020.39
2023-04-12T04:54:57.713Z,1020.42
2023-04-12T04:55:59.254Z,1020.42
2023-04-12T04:57:01.512Z,1020.38
2023-04-12T04:58:03.752Z,1020.44
2023-04-12T04:59:05.955Z,1020.35
2023-04-12T05:00:07.358Z,1020.37
2023-04-12T05:01:09.683Z,1020.33
2023-04-12T05:02:11.967Z,1020.34
2023-04-12T05:03:13.437Z,1020.33
2023-04-12T05:04:14.923Z,1020.28
2023-04-12T05:05:16.563Z,1020.28
2023-04-12T05:06:18.886Z,1020.23
2023-04-12T05:07:20.431Z,1020.32
2023-04-12T05:08:22.623Z,1020.32
2023-04-12T05:09:24.034Z,1020.44
2023-04-12T05:10:26.220Z,1020.38
2023-04-12T05:11:27.737Z,1020.44
2023-04-12T05:12:29.135Z,1020.44
2023-04-12T05:13:30.538Z,1020.44
2023-04-12T05:14:45.405Z,1020.37
2023-04-12T05:15:34.273Z,1020.40
2023-04-12T05:16:35.795Z,1020.39
2023-04-12T05:17:38.117Z,1020.34
2023-04-12T05:18:39.553Z,1020.38
2023-04-12T05:19:40.965Z,1020.36
2023-04-12T05:20:43.162Z,1020.39
2023-04-12T05:21:44.573Z,1020.39
2023-04-12T05:22:46.770Z,1020.39
2023-04-12T05:23:49.042Z,1020.49
2023-04-12T05:24:50.438Z,1020.36
2023-04-12T05:25:51.835Z,1020.30
2023-04-12T05:26:53.248Z,1020.37
2023-04-12T05:27:55.512Z,1020.34
2023-04-12T05:28:57.872Z,1020.29
2023-04-12T05:30:00.251Z,1020.25
2023-04-12T05:31:02.624Z,1020.24
2023-04-12T05:32:04.072Z,1020.32
2023-04-12T05:33:06.299Z,1020.27
2023-04-12T05:34:08.582Z,1020.26
2023-04-12T05:35:10.060Z,1020.29
2023-04-12T05:36:12.309Z,1020.29
2023-04-12T05:37:14.606Z,1020.27
2023-04-12T05:38:16.036Z,1020.34
2023-04-12T05:39:20.467Z,1020.34
2023-04-12T05:40:21.548Z,1020.31
2023-04-12T05:41:22.922Z,1020.32
2023-04-12T05:42:25.125Z,1020.29
2023-04-12T05:43:26.531Z,1020.24
2023-04-12T05:44:28.725Z,1020.23
2023-04-12T05:45:30.935Z,1020.36
2023-04-12T05:46:32.365Z,1020.28
2023-04-12T05:47:34.686Z,1020.22
2023-04-12T05:48:36.104Z,1020.33
2023-04-12T05:49:37.564Z,1020.27
2023-04-12T05:50:38.976Z,1020.33
2023-04-12T05:51:41.580Z,1020.24
2023-04-12T05:52:43.609Z,1020.19
2023-04-12T05:53:45.879Z,1020.22
2023-04-12T05:54:47.280Z,1020.12
2023-04-12T05:55:48.699Z,1020.25
2023-04-12T05:56:50.878Z,1020.22
2023-04-12T05:57:52.287Z,1020.10
2023-04-12T05:58:53.685Z,1020.15
2023-04-12T05:59:55.884Z,1020.15
2023-04-12T06:00:58.092Z,1020.18
2023-04-12T06:02:00.430Z,1020.16
2023-04-12T06:03:02.846Z,1020.20
2023-04-12T06:04:05.230Z,1020.17
2023-04-12T06:05:06.798Z,1020.10
2023-04-12T06:06:09.166Z,1020.17
2023-04-12T06:07:10.571Z,1020.12
2023-04-12T06:08:11.975Z,1020.21
2023-04-12T06:09:13.363Z,1020.24
2023-04-12T06:10:14.761Z,1020.19
2023-04-12T06:11:16.164Z,1020.21
2023-04-12T06:12:18.362Z,1020.16
2023-04-12T06:13:19.766Z,1020.20
2023-04-12T06:14:21.152Z,1020.18
2023-04-12T06:15:23.356Z,1020.07
2023-04-12T06:16:25.668Z,1020.10
2023-04-12T06:17:27.142Z,1020.14
2023-04-12T06:18:29.343Z,1020.10
2023-04-12T06:19:30.818Z,1020.06
2023-04-12T06:20:32.330Z,1020.16
2023-04-12T06:21:33.697Z,1020.17
2023-04-12T06:22:35.098Z,1020.12
2023-04-12T06:23:36.569Z,1020.16
2023-04-12T06:24:37.970Z,1020.15
2023-04-12T06:25:40.168Z,1020.15
2023-04-12T06:26:41.560Z,1020.22
2023-04-12T06:27:43.813Z,1020.21
2023-04-12T06:28:46.070Z,1020.24
2023-04-12T06:29:47.514Z,1020.23
2023-04-12T06:30:48.921Z,1020.26
2023-04-12T06:31:50.372Z,1020.24
2023-04-12T06:32:51.816Z,1020.14
2023-04-12T06:33:54.069Z,1020.17
2023-04-12T06:34:56.313Z,1020.20
2023-04-12T06:35:58.589Z,1020.16
2023-04-12T06:37:00.008Z,1020.19
2023-04-12T06:38:02.316Z,1020.24
2023-04-12T06:39:04.523Z,1020.26
2023-04-12T06:40:06.977Z,1020.28
2023-04-12T06:41:09.213Z,1020.23
2023-04-12T06:42:12.097Z,1020.24
2023-04-12T06:43:12.865Z,1020.32
2023-04-12T06:44:14.259Z,1020.34
2023-04-12T06:45:15.686Z,1020.23
2023-04-12T06:46:17.947Z,1020.25
2023-04-12T06:47:20.175Z,1020.26
2023-04-12T06:48:21.555Z,1020.23
2023-04-12T06:49:22.955Z,1020.25
2023-04-12T06:50:25.176Z,1020.22
2023-04-12T06:51:27.419Z,1020.11
2023-04-12T06:52:29.674Z,1020.10
2023-04-12T06:53:31.928Z,1020.14
2023-04-12T06:54:33.332Z,1020.14
2023-04-12T06:55:34.724Z,1020.13
2023-04-12T06:56:36.140Z,1020.07
2023-04-12T06:57:38.381Z,1020.16
2023-04-12T06:58:40.580Z,1020.04
2023-04-12T06:59:41.986Z,1020.13
2023-04-12T07:00:44.377Z,1020.07
2023-04-12T07:01:46.599Z,1020.09
2023-04-12T07:02:48.911Z,1020.03
2023-04-12T07:03:50.623Z,1020.14
2023-04-12T07:04:52.978Z,1020.11
2023-04-12T07:05:55.293Z,1020.14
2023-04-12T07:06:57.574Z,1020.18
2023-04-12T07:07:59.801Z,1020.18
2023-04-12T07:09:02.023Z,1020.14
2023-04-12T07:10:03.402Z,1020.21
2023-04-12T07:11:18.179Z,1020.11
2023-04-12T07:12:07.993Z,1020.14
2023-04-12T07:13:09.385Z,1020.20
2023-04-12T07:14:10.855Z,1020.22
2023-04-12T07:15:13.104Z,1020.17
2023-04-12T07:16:14.553Z,1020.20
2023-04-12T07:17:15.967Z,1020.28
2023-04-12T07:18:17.363Z,1020.20
2023-04-12T07:19:19.690Z,1020.28
2023-04-12T07:20:21.889Z,1020.28
2023-04-12T07:21:23.286Z,1020.34
2023-04-12T07:22:25.579Z,1020.25
2023-04-12T07:23:27.070Z,1020.27
2023-04-12T07:24:28.475Z,1020.30
2023-04-12T07:25:29.871Z,1020.32
2023-04-12T07:26:32.130Z,1020.26
2023-04-12T07:27:34.330Z,1020.24
2023-04-12T07:28:35.726Z,1020.32
2023-04-12T07:29:38.231Z,1020.29
2023-04-12T07:30:40.488Z,1020.35
2023-04-12T07:31:41.892Z,1020.34
2023-04-12T07:32:44.222Z,1020.27
2023-04-12T07:33:46.656Z,1020.29
2023-04-12T07:34:48.121Z,1020.28
2023-04-12T07:35:50.414Z,1020.33
2023-04-12T07:36:51.814Z,1020.39
2023-04-12T07:37:53.279Z,1020.33
2023-04-12T07:38:56.102Z,1020.37
2023-04-12T07:39:57.827Z,1020.37
2023-04-12T07:41:00.085Z,1020.43
2023-04-12T07:42:01.568Z,1020.41
2023-04-12T07:43:03.882Z,1020.42
2023-04-12T07:44:05.281Z,1020.34
2023-04-12T07:45:07.548Z,1020.45
2023-04-12T07:46:09.837Z,1020.41
2023-04-12T07:47:11.249Z,1020.46
2023-04-12T07:48:12.662Z,1020.38
2023-04-12T07:49:14.912Z,1020.41
2023-04-12T07:50:16.366Z,1020.29
2023-04-12T07:51:18.981Z,1020.40
2023-04-12T07:52:21.235Z,1020.34
2023-04-12T07:53:22.896Z,1020.38
2023-04-12T07:54:24.945Z,1020.35
2023-04-12T07:55:26.414Z,1020.35
2023-04-12T07:56:28.674Z,1020.38
2023-04-12T07:57:30.341Z,1020.35
2023-04-12T07:58:32.410Z,1020.29
2023-04-12T07:59:33.885Z,1020.29
2023-04-12T08:00:35.290Z,1020.24
2023-04-12T08:01:37.487Z,1020.38
2023-04-12T08:02:39.893Z,1020.35
2023-04-12T08:03:41.536Z,1020.35
2023-04-12T08:04:42.955Z,1020.32
2023-04-12T08:05:44.505Z,1020.22
2023-04-12T08:06:45.939Z,1020.21
2023-04-12T08:07:48.134Z,1020.12
2023-04-12T08:08:50.383Z,1020.18
2023-04-12T08:09:52.706Z,1020.20
2023-04-12T08:10:54.902Z,1020.17
2023-04-12T08:11:56.299Z,1020.22
2023-04-12T08:12:57.698Z,1020.22
2023-04-12T08:13:59.332Z,1020.17
2023-04-12T08:15:00.925Z,1020.14
2023-04-12T08:16:02.350Z,1020.12
2023-04-12T08:17:04.635Z,1020.14
2023-04-12T08:18:06.928Z,1020.17
2023-04-12T08:19:08.349Z,1020.13
2023-04-12T08:20:10.612Z,1020.18
2023-04-12T08:21:12.802Z,1020.12
2023-04-12T08:22:14.194Z,1020.21
2023-04-12T08:23:15.602Z,1020.12
2023-04-12T08:24:17.002Z,1020.13
2023-04-12T08:25:19.243Z,1020.16
2023-04-12T08:26:21.539Z,1020.10
2023-04-12T08:27:22.994Z,1020.07
2023-04-12T08:28:24.463Z,1020.05
2023-04-12T08:29:26.661Z,1020.07
2023-04-12T08:30:28.077Z,1020.07
2023-04-12T08:31:30.401Z,1020.08
2023-04-12T08:32:31.957Z,1020.24
2023-04-12T08:33:34.162Z,1020.32
2023-04-12T08:34:35.608Z,1020.29
2023-04-12T08:35:37.827Z,1020.24
2023-04-12T08:36:40.076Z,1020.34
2023-04-12T08:37:41.466Z,1020.37
2023-04-12T08:38:46.207Z,1020.33
2023-04-12T08:39:47.133Z,1020.21
2023-04-12T08:40:49.349Z,1020.17
2023-04-12T08:41:50.750Z,1020.28
2023-04-12T08:42:52.960Z,1020.33
2023-04-12T08:43:54.358Z,1020.32
2023-04-12T08:44:55.754Z,1020.47
2023-04-12T08:45:58.001Z,1020.45
2023-04-12T08:46:59.456Z,1020.43
2023-04-12T08:48:00.935Z,1020.49
2023-04-12T08:49:03.206Z,1020.47
2023-04-12T08:50:04.675Z,1020.44
2023-04-12T08:51:06.148Z,1020.56
2023-04-12T08:52:08.402Z,1020.59
2023-04-12T08:53:10.645Z,1020.55
2023-04-12T08:54:12.856Z,1020.64
2023-04-12T08:55:14.325Z,1020.70
2023-04-12T08:56:16.521Z,1020.78
2023-04-12T08:57:17.981Z,1020.84
2023-04-12T08:58:20.226Z,1020.94
2023-04-12T08:59:21.675Z,1020.87
2023-04-12T09:00:23.084Z,1021.02
2023-04-12T09:01:24.504Z,1021.08
2023-04-12T09:02:26.149Z,1021.07
2023-04-12T09:03:28.125Z,1021.13
2023-04-12T09:04:30.963Z,1021.15
2023-04-12T09:05:33.287Z,1021.22
2023-04-12T09:06:35.586Z,1021.22
2023-04-12T09:07:37.783Z,1021.17
2023-04-12T09:08:39.194Z,1021.27
2023-04-12T09:09:40.585Z,1021.15
2023-04-12T09:10:41.987Z,1021.08
2023-04-12T09:11:44.325Z,1021.15
2023-04-12T09:12:45.887Z,1021.19
2023-04-12T09:13:47.294Z,1021.11
2023-04-12T09:14:49.547Z,1021.16
2023-04-12T09:15:51.745Z,1021.08
2023-04-12T09:16:53.221Z,1021.11
2023-04-12T09:17:54.687Z,1021.11
2023-04-12T09:18:57.088Z,1021.16
2023-04-12T09:19:58.538Z,1021.20
2023-04-12T09:20:59.947Z,1021.11
2023-04-12T09:22:01.345Z,1021.17
2023-04-12T09:23:02.740Z,1021.15
2023-04-12T09:24:04.198Z,1021.18
2023-04-12T09:25:06.449Z,1021.20
2023-04-12T09:26:07.847Z,1021.20
2023-04-12T09:27:09.252Z,1021.29
2023-04-12T09:28:10.644Z,1021.15
2023-04-12T09:29:12.040Z,1021.20
2023-04-12T09:30:14.258Z,1021.25
2023-04-12T09:31:15.705Z,1021.21
2023-04-12T09:32:17.142Z,1021.32
2023-04-12T09:33:18.582Z,1021.28
2023-04-12T09:34:20.828Z,1021.25
2023-04-12T09:35:22.334Z,1021.14
2023-04-12T09:36:24.633Z,1021.09
2023-04-12T09:37:26.911Z,1021.14
2023-04-12T09:38:28.360Z,1021.19
2023-04-12T09:39:29.771Z,1021.25
2023-04-12T09:40:31.226Z,1021.23
2023-04-12T09:41:32.729Z,1021.33
2023-04-12T09:42:34.790Z,1021.30
2023-04-12T09:43:35.544Z,1021.24
2023-04-12T09:44:36.955Z,1021.25
2023-04-12T09:45:39.168Z,1021.36
2023-04-12T09:46:41.391Z,1021.30
2023-04-12T09:47:42.818Z,1021.33
2023-04-12T09:48:44.282Z,1021.43
2023-04-12T09:49:45.694Z,1021.43
2023-04-12T09:50:47.961Z,1021.55
2023-04-12T09:51:49.410Z,1021.60
2023-04-12T09:52:51.615Z,1021.55
2023-04-12T09:53:53.864Z,1021.62
2023-04-12T09:54:55.272Z,1021.63
2023-04-12T09:55:57.543Z,1021.53
2023-04-12T09:56:59.780Z,1021.61
2023-04-12T09:58:02.036Z,1021.67
2023-04-12T09:59:04.347Z,1021.67
2023-04-12T10:00:06.555Z,1021.66
2023-04-12T10:01:08.770Z,1021.66
2023-04-12T10:02:10.246Z,1021.72
2023-04-12T10:03:12.654Z,1021.56
2023-04-12T10:04:15.163Z,1021.69
2023-04-12T10:05:17.821Z,1021.65
2023-04-12T10:06:19.500Z,1021.72
2023-04-12T10:07:20.948Z,1021.69
2023-04-12T10:08:23.149Z,1021.72
2023-04-12T10:09:25.398Z,1021.76
2023-04-12T10:10:27.663Z,1021.80
2023-04-12T10:11:29.878Z,1021.83
2023-04-12T10:12:31.284Z,1021.99
2023-04-12T10:13:33.549Z,1021.98
2023-04-12T10:14:35.768Z,1022.01
2023-04-12T10:15:38.026Z,1022.09
2023-04-12T10:16:39.542Z,1022.02
2023-04-12T10:17:41.077Z,1022.05
2023-04-12T10:18:43.309Z,1022.12
2023-04-12T10:19:45.563Z,1022.14
2023-04-12T10:20:46.955Z,1022.21
2023-04-12T10:21:48.463Z,1022.11
2023-04-12T10:22:50.741Z,1022.14
2023-04-12T10:23:53.920Z,1022.08
2023-04-12T10:24:56.111Z,1022.14
2023-04-12T10:25:57.573Z,1022.20
2023-04-12T10:26:59.871Z,1022.22
2023-04-12T10:28:01.285Z,1022.14
2023-04-12T10:29:02.705Z,1022.16
2023-04-12T10:30:04.920Z,1022.19
2023-04-12T10:31:07.151Z,1022.26
2023-04-12T10:32:08.697Z,1022.19
2023-04-12T10:33:10.364Z,1022.26
2023-04-12T10:34:12.659Z,1022.30
2023-04-12T10:35:14.119Z,1022.24
2023-04-12T10:36:16.429Z,1022.35
2023-04-12T10:37:17.835Z,1022.32
2023-04-12T10:38:19.325Z,1022.27
2023-04-12T10:39:20.769Z,1022.24
2023-04-12T10:40:23.060Z,1022.26
2023-04-12T10:41:24.500Z,1022.26
2023-04-12T10:42:25.918Z,1022.27
2023-04-12T10:43:28.207Z,1022.26
2023-04-12T10:44:29.714Z,1022.24
2023-04-12T10:45:31.128Z,1022.26
2023-04-12T10:46:33.364Z,1022.28
2023-04-12T10:47:34.780Z,1022.31
2023-04-12T10:48:36.237Z,1022.35
2023-04-12T10:49:37.688Z,1022.28
2023-04-12T10:50:39.159Z,1022.29
2023-04-12T10:51:40.597Z,1022.29
2023-04-12T10:52:42.935Z,1022.29
2023-04-12T10:53:45.141Z,1022.23
2023-04-12T10:54:46.531Z,1022.24
2023-04-12T10:55:47.982Z,1022.22
2023-04-12T10:56:49.359Z,1022.24
2023-04-12T10:57:50.759Z,1022.28
2023-04-12T10:58:53.060Z,1022.24
2023-04-12T10:59:55.250Z,1022.24
2023-04-12T11:00:57.606Z,1022.25
2023-04-12T11:02:00.020Z,1022.28
2023-04-12T11:03:02.454Z,1022.31
2023-04-12T11:04:04.208Z,1022.38
2023-04-12T11:05:06.613Z,1022.28
2023-04-12T11:06:24.074Z,1022.28
2023-04-12T11:07:12.462Z,1022.28
2023-04-12T11:08:14.738Z,1022.28
2023-04-12T11:09:16.947Z,1022.26
2023-04-12T11:10:18.336Z,1022.17
2023-04-12T11:11:19.784Z,1022.22
2023-04-12T11:12:22.048Z,1022.28
2023-04-12T11:13:24.300Z,1022.28
2023-04-12T11:14:25.790Z,1022.29
2023-04-12T11:15:27.262Z,1022.37
2023-04-12T11:16:29.653Z,1022.29
2023-04-12T11:17:31.971Z,1022.36
2023-04-12T11:18:34.240Z,1022.29
2023-04-12T11:19:35.737Z,1022.34
2023-04-12T11:20:37.961Z,1022.36
2023-04-12T11:21:39.346Z,1022.31
2023-04-12T11:22:41.595Z,1022.37
2023-04-12T11:23:43.795Z,1022.33
2023-04-12T11:24:45.208Z,1022.36
2023-04-12T11:25:47.471Z,1022.37
2023-04-12T11:26:48.857Z,1022.31
2023-04-12T11:27:50.262Z,1022.38
2023-04-12T11:28:52.526Z,1022.35
2023-04-12T11:29:54.793Z,1022.36
2023-04-12T11:30:57.126Z,1022.39
2023-04-12T11:31:59.376Z,1022.39
2023-04-12T11:33:01.722Z,1022.40
2023-04-12T11:34:03.969Z,1022.38
2023-04-12T11:35:06.168Z,1022.36
2023-04-12T11:36:08.479Z,1022.36
2023-04-12T11:37:10.670Z,1022.45
2023-04-12T11:38:12.938Z,1022.37
2023-04-12T11:39:15.136Z,1022.37
2023-04-12T11:40:17.397Z,1022.37
2023-04-12T11:41:19.608Z,1022.37
2023-04-12T11:42:21.005Z,1022.40
2023-04-12T11:43:22.466Z,1022.37
2023-04-12T11:44:24.717Z,1022.40
2023-04-12T11:45:26.122Z,1022.37
2023-04-12T11:46:27.637Z,1022.39
2023-04-12T11:47:29.950Z,1022.33
2023-04-12T11:48:31.431Z,1022.27
2023-04-12T11:49:32.839Z,1022.29
2023-04-12T11:50:35.164Z,1022.33
2023-04-12T11:51:37.366Z,1022.28
2023-04-12T11:52:38.767Z,1022.29
2023-04-12T11:53:40.974Z,1022.28
2023-04-12T11:54:42.462Z,1022.28
2023-04-12T11:55:43.858Z,1022.33
2023-04-12T11:56:46.072Z,1022.21
2023-04-12T11:57:47.532Z,1022.33
2023-04-12T11:58:49.804Z,1022.32
2023-04-12T11:59:52.008Z,1022.32
2023-04-12T12:00:53.414Z,1022.36
2023-04-12T12:01:54.860Z,1022.30
2023-04-12T12:03:59.079Z,1022.33
2023-04-12T12:05:00.231Z,1022.35
2023-04-12T12:06:01.872Z,1022.30
2023-04-12T12:07:04.290Z,1022.33
2023-04-12T12:08:05.708Z,1022.33
2023-04-12T12:09:07.109Z,1022.36
2023-04-12T12:10:08.511Z,1022.31
2023-04-12T12:11:10.769Z,1022.31
2023-04-12T12:12:13.093Z,1022.36
2023-04-12T12:13:14.541Z,1022.38
2023-04-12T12:14:16.790Z,1022.33
2023-04-12T12:15:19.087Z,1022.33
2023-04-12T12:16:20.541Z,1022.31
2023-04-12T12:17:21.991Z,1022.29
2023-04-12T12:18:23.452Z,1022.39
2023-04-12T12:19:24.833Z,1022.36
2023-04-12T12:20:27.078Z,1022.33
2023-04-12T12:21:28.600Z,1022.24
2023-04-12T12:22:30.030Z,1022.29
2023-04-12T12:23:32.283Z,1022.30
2023-04-12T12:24:35.423Z,1022.31
2023-04-12T12:25:36.952Z,1022.33
2023-04-12T12:26:38.357Z,1022.34
2023-04-12T12:27:40.757Z,1022.31
2023-04-12T12:28:42.250Z,1022.37
2023-04-12T12:29:44.498Z,1022.43